createdAt,value
2018-01-02T00:00:30.711Z,7.33
2018-01-02T00:01:30.787Z,7.33
2018-01-02T00:02:30.592Z,7.33
2018-01-02T00:03:30.366Z,7.32
2018-01-02T00:04:31.270Z,7.31
2018-01-02T00:05:31.195Z,7.29
2018-01-02T00:06:31.155Z,7.32
2018-01-02T00:07:31.137Z,7.29
2018-01-02T00:08:31.095Z,7.31
2018-01-02T00:09:31.063Z,7.29
2018-01-02T00:10:31.169Z,7.28
2018-01-02T00:11:31.295Z,7.31
2018-01-02T00:12:31.188Z,7.29
2018-01-02T00:13:31.331Z,7.27
2018-01-02T00:14:31.226Z,7.27
2018-01-02T00:15:31.151Z,7.26
2018-01-02T00:16:31.125Z,7.25
2018-01-02T00:17:31.335Z,7.27
2018-01-02T00:18:31.084Z,7.24
2018-01-02T00:19:30.855Z,7.26
2018-01-02T00:20:30.870Z,7.23
2018-01-02T00:21:31.106Z,7.25
2018-01-02T00:22:31.129Z,7.23
2018-01-02T00:23:31.059Z,7.24
2018-01-02T00:24:31.192Z,7.25
2018-01-02T00:25:30.261Z,7.22
2018-01-02T00:26:30.244Z,7.24
2018-01-02T00:27:30.291Z,7.22
2018-01-02T00:28:30.748Z,7.21
2018-01-02T00:29:30.731Z,7.2
2018-01-02T00:30:30.495Z,7.2
2018-01-02T00:31:30.564Z,7.17
2018-01-02T00:32:30.524Z,7.19
2018-01-02T00:33:30.566Z,7.16
2018-01-02T00:34:30.597Z,7.18
2018-01-02T00:35:30.604Z,7.15
2018-01-02T00:36:30.595Z,7.14
2018-01-02T00:37:30.456Z,7.13
2018-01-02T00:38:30.578Z,7.13
2018-01-02T00:39:30.642Z,7.12
2018-01-02T00:40:30.589Z,7.1
2018-01-02T00:41:30.528Z,7.09
2018-01-02T00:42:30.439Z,7.1
2018-01-02T00:43:30.300Z,7.09
2018-01-02T00:44:30.312Z,7.1
2018-01-02T00:45:30.300Z,7.09
2018-01-02T00:46:30.216Z,7.08
2018-01-02T00:47:30.197Z,7.08
2018-01-02T00:48:30.274Z,7.05
2018-01-02T00:49:30.724Z,7.04
2018-01-02T00:50:30.661Z,7.03
2018-01-02T00:51:30.798Z,7.05
2018-01-02T00:52:31.010Z,7.04
2018-01-02T00:53:31.004Z,7.02
2018-01-02T00:54:30.940Z,7.01
2018-01-02T00:55:29.873Z,6.98
2018-01-02T00:56:30.804Z,7
2018-01-02T00:57:31.058Z,6.96
2018-01-02T00:58:30.040Z,6.96
2018-01-02T00:59:30.082Z,6.95
2018-01-02T01:00:30.117Z,6.94
2018-01-02T01:01:30.058Z,6.92
2018-01-02T01:02:30.217Z,6.9
2018-01-02T01:03:30.148Z,6.89
2018-01-02T01:04:29.292Z,6.88
2018-01-02T01:05:30.390Z,6.85
2018-01-02T01:06:30.499Z,6.84
2018-01-02T01:07:30.591Z,6.81
2018-01-02T01:08:30.812Z,6.81
2018-01-02T01:09:30.832Z,6.8
2018-01-02T01:10:30.840Z,6.77
2018-01-02T01:11:30.779Z,6.76
2018-01-02T01:12:30.899Z,6.74
2018-01-02T01:13:30.687Z,6.74
2018-01-02T01:14:30.570Z,6.73
2018-01-02T01:15:30.339Z,6.72
2018-01-02T01:16:30.468Z,6.68
2018-01-02T01:17:29.652Z,6.68
2018-01-02T01:18:30.533Z,6.64
2018-01-02T01:19:30.406Z,6.65
2018-01-02T01:20:30.252Z,6.62
2018-01-02T01:21:30.109Z,6.58
2018-01-02T01:22:29.944Z,6.57
2018-01-02T01:23:30.040Z,6.55
2018-01-02T01:24:30.193Z,6.54
2018-01-02T01:25:30.076Z,6.52
2018-01-02T01:26:30.933Z,6.49
2018-01-02T01:27:30.948Z,6.48
2018-01-02T01:28:31.006Z,6.46
2018-01-02T01:29:30.862Z,6.43
2018-01-02T01:30:30.730Z,6.43
2018-01-02T01:31:30.783Z,6.42
2018-01-02T01:32:30.715Z,6.39
2018-01-02T01:33:30.758Z,6.37
2018-01-02T01:34:30.965Z,6.36
2018-01-02T01:35:31.008Z,6.31
2018-01-02T01:36:30.937Z,6.33
2018-01-02T01:37:30.942Z,6.3
2018-01-02T01:38:30.828Z,6.28
2018-01-02T01:39:30.989Z,6.27
2018-01-02T01:40:31.004Z,6.26
2018-01-02T01:41:31.010Z,6.23
2018-01-02T01:42:30.858Z,6.23
2018-01-02T01:43:30.867Z,6.26
2018-01-02T01:44:31.004Z,6.22
2018-01-02T01:45:31.196Z,6.22
2018-01-02T01:46:31.171Z,6.22
2018-01-02T01:47:31.228Z,6.21
2018-01-02T01:48:31.120Z,6.17
2018-01-02T01:49:31.109Z,6.2
2018-01-02T01:50:31.076Z,6.16
2018-01-02T01:51:31.037Z,6.16
2018-01-02T01:52:30.955Z,6.16
2018-01-02T01:53:30.882Z,6.16
2018-01-02T01:54:30.743Z,6.18
2018-01-02T01:55:30.916Z,6.2
2018-01-02T01:56:30.013Z,6.18
2018-01-02T01:57:29.928Z,6.19
2018-01-02T01:58:29.960Z,6.22
2018-01-02T01:59:29.813Z,6.19
2018-01-02T02:00:30.901Z,6.2
2018-01-02T02:01:29.790Z,6.21
2018-01-02T02:02:30.648Z,6.25
2018-01-02T02:03:30.530Z,6.26
2018-01-02T02:04:30.400Z,6.29
2018-01-02T02:05:30.543Z,6.27
2018-01-02T02:06:30.539Z,6.3
2018-01-02T02:07:30.477Z,6.29
2018-01-02T02:08:30.427Z,6.31
2018-01-02T02:09:30.568Z,6.32
2018-01-02T02:10:30.405Z,6.32
2018-01-02T02:11:30.641Z,6.32
2018-01-02T02:12:30.428Z,6.36
2018-01-02T02:13:30.665Z,6.36
2018-01-02T02:14:30.599Z,6.35
2018-01-02T02:15:30.745Z,6.38
2018-01-02T02:16:30.930Z,6.38
2018-01-02T02:17:30.363Z,6.39
2018-01-02T02:18:30.537Z,6.36
2018-01-02T02:19:30.421Z,6.39
2018-01-02T02:20:30.543Z,6.38
2018-01-02T02:21:30.759Z,6.4
2018-01-02T02:22:30.818Z,6.39
2018-01-02T02:23:30.966Z,6.39
2018-01-02T02:24:30.058Z,6.4
2018-01-02T02:25:30.008Z,6.4
2018-01-02T02:26:29.923Z,6.4
2018-01-02T02:27:30.923Z,6.39
2018-01-02T02:28:31.015Z,6.4
2018-01-02T02:29:30.931Z,6.41
2018-01-02T02:30:31.198Z,6.4
2018-01-02T02:31:30.380Z,6.4
2018-01-02T02:32:30.244Z,6.4
2018-01-02T02:33:30.493Z,6.41
2018-01-02T02:34:30.478Z,6.41
2018-01-02T02:35:30.352Z,6.4
2018-01-02T02:36:30.346Z,6.4
2018-01-02T02:37:30.299Z,6.4
2018-01-02T02:38:30.236Z,6.41
2018-01-02T02:39:30.476Z,6.4
2018-01-02T02:40:30.391Z,6.39
2018-01-02T02:41:30.394Z,6.39
2018-01-02T02:42:30.265Z,6.38
2018-01-02T02:43:30.398Z,6.38
2018-01-02T02:44:30.447Z,6.38
2018-01-02T02:45:30.557Z,6.35
2018-01-02T02:46:30.468Z,6.34
2018-01-02T02:47:30.539Z,6.34
2018-01-02T02:48:30.505Z,6.34
2018-01-02T02:49:30.531Z,6.34
2018-01-02T02:50:30.781Z,6.34
2018-01-02T02:51:30.694Z,6.34
2018-01-02T02:52:30.620Z,6.35
2018-01-02T02:53:30.566Z,6.37
2018-01-02T02:54:30.629Z,6.37
2018-01-02T02:55:30.547Z,6.35
2018-01-02T02:56:30.867Z,6.37
2018-01-02T02:57:30.953Z,6.35
2018-01-02T02:58:30.892Z,6.35
2018-01-02T02:59:30.746Z,6.38
2018-01-02T03:00:30.636Z,6.35
2018-01-02T03:01:30.477Z,6.37
2018-01-02T03:02:31.395Z,6.34
2018-01-02T03:03:31.534Z,6.36
2018-01-02T03:04:31.524Z,6.34
2018-01-02T03:05:31.473Z,6.37
2018-01-02T03:06:31.268Z,6.34
2018-01-02T03:07:31.330Z,6.34
2018-01-02T03:08:31.388Z,6.35
2018-01-02T03:09:31.387Z,6.35
2018-01-02T03:10:31.226Z,6.35
2018-01-02T03:11:31.386Z,6.34
2018-01-02T03:12:31.339Z,6.33
2018-01-02T03:13:31.280Z,6.33
2018-01-02T03:14:31.066Z,6.34
2018-01-02T03:15:30.902Z,6.33
2018-01-02T03:16:30.942Z,6.34
2018-01-02T03:17:31.044Z,6.33
2018-01-02T03:18:31.006Z,6.33
2018-01-02T03:19:31.040Z,6.31
2018-01-02T03:20:31.116Z,6.33
2018-01-02T03:21:31.114Z,6.32
2018-01-02T03:22:30.847Z,6.33
2018-01-02T03:23:30.892Z,6.32
2018-01-02T03:24:30.834Z,6.33
2018-01-02T03:25:31.101Z,6.32
2018-01-02T03:26:31.358Z,6.29
2018-01-02T03:27:30.296Z,6.32
2018-01-02T03:28:30.215Z,6.3
2018-01-02T03:29:30.290Z,6.29
2018-01-02T03:30:30.178Z,6.29
2018-01-02T03:31:30.297Z,6.32
2018-01-02T03:32:30.110Z,6.3
2018-01-02T03:33:30.144Z,6.32
2018-01-02T03:34:30.111Z,6.3
2018-01-02T03:35:30.208Z,6.32
2018-01-02T03:36:30.369Z,6.31
2018-01-02T03:37:30.486Z,6.32
2018-01-02T03:38:30.384Z,6.32
2018-01-02T03:39:30.477Z,6.32
2018-01-02T03:40:30.537Z,6.3
2018-01-02T03:41:30.479Z,6.3
2018-01-02T03:42:30.541Z,6.32
2018-01-02T03:43:30.586Z,6.3
2018-01-02T03:44:30.672Z,6.33
2018-01-02T03:45:30.644Z,6.34
2018-01-02T03:46:30.620Z,6.35
2018-01-02T03:47:30.806Z,6.33
2018-01-02T03:48:30.730Z,6.33
2018-01-02T03:49:30.625Z,6.34
2018-01-02T03:50:30.557Z,6.33
2018-01-02T03:51:30.678Z,6.33
2018-01-02T03:52:30.889Z,6.33
2018-01-02T03:53:30.786Z,6.31
2018-01-02T03:54:30.758Z,6.33
2018-01-02T03:55:31.248Z,6.32
2018-01-02T03:56:29.980Z,6.32
2018-01-02T03:57:31.056Z,6.33
2018-01-02T03:58:30.037Z,6.33
2018-01-02T03:59:30.008Z,6.32
2018-01-02T04:00:29.907Z,6.3
2018-01-02T04:01:30.877Z,6.32
2018-01-02T04:02:29.858Z,6.3
2018-01-02T04:03:30.616Z,6.3
2018-01-02T04:04:30.672Z,6.29
2018-01-02T04:05:30.688Z,6.29
2018-01-02T04:06:30.720Z,6.27
2018-01-02T04:07:30.623Z,6.29
2018-01-02T04:08:30.404Z,6.28
2018-01-02T04:09:30.349Z,6.28
2018-01-02T04:10:30.493Z,6.25
2018-01-02T04:11:30.342Z,6.27
2018-01-02T04:12:30.482Z,6.26
2018-01-02T04:13:30.669Z,6.27
2018-01-02T04:14:30.860Z,6.26
2018-01-02T04:15:30.784Z,6.25
2018-01-02T04:16:30.947Z,6.25
2018-01-02T04:17:30.870Z,6.24
2018-01-02T04:18:29.957Z,6.25
2018-01-02T04:19:30.868Z,6.23
2018-01-02T04:21:34.201Z,6.22
2018-01-02T04:22:31.257Z,6.22
2018-01-02T04:23:31.260Z,6.2
2018-01-02T04:24:30.139Z,6.2
2018-01-02T04:25:30.156Z,6.2
2018-01-02T04:26:30.172Z,6.18
2018-01-02T04:27:32.068Z,6.16
2018-01-02T04:28:30.057Z,6.16
2018-01-02T04:29:29.977Z,6.15
2018-01-02T04:30:32.796Z,6.14
2018-01-02T04:31:31.366Z,6.14
2018-01-02T04:32:31.435Z,6.12
2018-01-02T04:33:31.475Z,6.11
2018-01-02T04:34:31.072Z,6.11
2018-01-02T04:35:31.921Z,6.09
2018-01-02T04:36:32.224Z,6.1
2018-01-02T04:37:31.315Z,6.1
2018-01-02T04:38:31.204Z,6.09
2018-01-02T04:39:32.049Z,6.09
2018-01-02T04:40:31.905Z,6.05
2018-01-02T04:41:31.911Z,6.08
2018-01-02T04:42:32.090Z,6.05
2018-01-02T04:43:31.875Z,6.08
2018-01-02T04:44:32.284Z,6.06
2018-01-02T04:45:31.366Z,6.05
2018-01-02T04:46:31.374Z,6.04
2018-01-02T04:47:31.070Z,6.04
2018-01-02T04:48:31.647Z,6.03
2018-01-02T04:49:31.704Z,6.02
2018-01-02T04:50:31.363Z,6.02
2018-01-02T04:51:31.408Z,6.03
2018-01-02T04:52:31.540Z,6.01
2018-01-02T04:53:31.363Z,6
2018-01-02T04:54:31.930Z,6.01
2018-01-02T04:55:31.881Z,5.99
2018-01-02T04:56:31.969Z,5.99
2018-01-02T04:57:32.157Z,5.99
2018-01-02T04:58:31.364Z,5.99
2018-01-02T04:59:31.508Z,5.98
2018-01-02T05:00:32.253Z,5.98
2018-01-02T05:01:32.232Z,5.98
2018-01-02T05:02:31.874Z,5.98
2018-01-02T05:03:32.033Z,5.98
2018-01-02T05:04:32.149Z,5.97
2018-01-02T05:05:32.589Z,5.97
2018-01-02T05:06:31.758Z,5.98
2018-01-02T05:07:32.225Z,5.98
2018-01-02T05:08:32.105Z,5.97
2018-01-02T05:09:31.979Z,5.97
2018-01-02T05:10:32.151Z,5.98
2018-01-02T05:11:31.966Z,5.98
2018-01-02T05:12:32.105Z,5.97
2018-01-02T05:13:31.918Z,5.97
2018-01-02T05:14:32.753Z,5.97
2018-01-02T05:15:31.762Z,5.97
2018-01-02T05:16:31.597Z,5.97
2018-01-02T05:17:32.506Z,5.97
2018-01-02T05:18:31.694Z,5.96
2018-01-02T05:19:31.602Z,5.98
2018-01-02T05:20:31.572Z,5.96
2018-01-02T05:21:31.539Z,5.97
2018-01-02T05:22:31.655Z,5.97
2018-01-02T05:23:31.488Z,5.96
2018-01-02T05:24:31.621Z,5.96
2018-01-02T05:25:32.000Z,5.96
2018-01-02T05:26:31.667Z,5.97
2018-01-02T05:27:31.948Z,5.96
2018-01-02T05:28:32.226Z,5.93
2018-01-02T05:29:32.634Z,5.93
2018-01-02T05:30:31.573Z,5.95
2018-01-02T05:31:31.528Z,5.96
2018-01-02T05:32:32.028Z,5.94
2018-01-02T05:33:31.830Z,5.95
2018-01-02T05:34:32.637Z,5.93
2018-01-02T05:35:31.814Z,5.95
2018-01-02T05:36:32.476Z,5.94
2018-01-02T05:37:31.216Z,5.95
2018-01-02T05:38:32.118Z,5.93
2018-01-02T05:39:32.477Z,5.95
2018-01-02T05:40:31.438Z,5.94
2018-01-02T05:41:31.387Z,5.96
2018-01-02T05:42:31.470Z,5.92
2018-01-02T05:43:31.607Z,5.95
2018-01-02T05:44:32.148Z,5.93
2018-01-02T05:45:32.578Z,5.94
2018-01-02T05:46:32.287Z,5.95
2018-01-02T05:47:30.007Z,5.94
2018-01-02T05:48:31.912Z,5.93
2018-01-02T05:49:32.046Z,5.92
2018-01-02T05:50:32.267Z,5.91
2018-01-02T05:51:31.337Z,5.89
2018-01-02T05:52:32.350Z,5.89
2018-01-02T05:53:34.584Z,5.88
2018-01-02T05:54:34.607Z,5.88
2018-01-02T05:55:32.194Z,5.87
2018-01-02T05:56:32.599Z,5.87
2018-01-02T05:57:31.631Z,5.85
2018-01-02T05:58:31.733Z,5.86
2018-01-02T05:59:29.705Z,5.84
2018-01-02T06:00:31.736Z,5.85
2018-01-02T06:01:29.779Z,5.82
2018-01-02T06:02:31.638Z,5.81
2018-01-02T06:03:32.287Z,5.82
2018-01-02T06:04:31.469Z,5.82
2018-01-02T06:05:31.154Z,5.83
2018-01-02T06:06:31.188Z,5.82
2018-01-02T06:07:31.358Z,5.82
2018-01-02T06:08:31.491Z,5.82
2018-01-02T06:09:31.294Z,5.82
2018-01-02T06:10:30.724Z,5.82
2018-01-02T06:11:31.778Z,5.82
2018-01-02T06:12:29.813Z,5.84
2018-01-02T06:13:31.768Z,5.84
2018-01-02T06:14:32.017Z,5.84
2018-01-02T06:15:30.713Z,5.84
2018-01-02T06:16:31.358Z,5.84
2018-01-02T06:17:31.179Z,5.88
2018-01-02T06:18:29.909Z,5.88
2018-01-02T06:19:30.064Z,5.89
2018-01-02T06:20:31.399Z,5.89
2018-01-02T06:21:31.263Z,5.9
2018-01-02T06:22:30.054Z,5.89
2018-01-02T06:23:31.226Z,5.9
2018-01-02T06:24:30.032Z,5.9
2018-01-02T06:25:30.021Z,5.91
2018-01-02T06:26:30.040Z,5.92
2018-01-02T06:27:29.880Z,5.9
2018-01-02T06:28:31.447Z,5.92
2018-01-02T06:29:31.401Z,5.93
2018-01-02T06:30:32.668Z,5.93
2018-01-02T06:31:32.304Z,5.91
2018-01-02T06:32:32.337Z,5.92
2018-01-02T06:33:32.633Z,5.93
2018-01-02T06:34:31.933Z,5.94
2018-01-02T06:35:31.919Z,5.93
2018-01-02T06:36:32.368Z,5.93
2018-01-02T06:37:32.590Z,5.92
2018-01-02T06:38:32.329Z,5.94
2018-01-02T06:39:32.254Z,5.93
2018-01-02T06:40:32.923Z,5.91
2018-01-02T06:41:32.306Z,5.91
2018-01-02T06:42:31.594Z,5.9
2018-01-02T06:43:31.567Z,5.93
2018-01-02T06:44:31.111Z,5.9
2018-01-02T06:45:32.783Z,5.93
2018-01-02T06:46:32.518Z,5.9
2018-01-02T06:47:31.474Z,5.9
2018-01-02T06:48:31.275Z,5.9
2018-01-02T06:49:32.534Z,5.89
2018-01-02T06:50:32.211Z,5.9
2018-01-02T06:51:31.802Z,5.89
2018-01-02T06:52:32.051Z,5.9
2018-01-02T06:53:32.238Z,5.89
2018-01-02T06:54:32.500Z,5.89
2018-01-02T06:55:32.661Z,5.88
2018-01-02T06:56:32.380Z,5.9
2018-01-02T06:57:32.553Z,5.9
2018-01-02T06:58:31.695Z,5.9
2018-01-02T06:59:31.701Z,5.9
2018-01-02T07:00:29.702Z,5.9
2018-01-02T07:01:31.744Z,5.9
2018-01-02T07:02:29.927Z,5.91
2018-01-02T07:03:29.941Z,5.93
2018-01-02T07:04:29.916Z,5.93
2018-01-02T07:05:30.965Z,5.94
2018-01-02T07:06:30.090Z,5.94
2018-01-02T07:07:30.131Z,5.94
2018-01-02T07:08:30.063Z,5.95
2018-01-02T07:09:31.165Z,5.96
2018-01-02T07:10:31.916Z,5.95
2018-01-02T07:11:31.275Z,5.97
2018-01-02T07:12:30.109Z,5.97
2018-01-02T07:13:31.198Z,5.97
2018-01-02T07:14:30.095Z,6
2018-01-02T07:15:31.741Z,6.01
2018-01-02T07:16:29.506Z,6.01
2018-01-02T07:17:31.323Z,6.02
2018-01-02T07:18:32.422Z,6.02
2018-01-02T07:19:30.152Z,6.02
2018-01-02T07:20:30.063Z,6.02
2018-01-02T07:21:31.359Z,6.02
2018-01-02T07:22:32.024Z,6.02
2018-01-02T07:23:31.827Z,6.03
2018-01-02T07:24:29.877Z,6.05
2018-01-02T07:25:30.080Z,6.06
2018-01-02T07:26:30.147Z,6.06
2018-01-02T07:27:29.637Z,6.04
2018-01-02T07:28:32.500Z,6.08
2018-01-02T07:29:32.311Z,6.05
2018-01-02T07:30:31.942Z,6.08
2018-01-02T07:31:31.612Z,6.07
2018-01-02T07:32:31.457Z,6.06
2018-01-02T07:33:31.755Z,6.08
2018-01-02T07:34:31.809Z,6.09
2018-01-02T07:35:31.766Z,6.08
2018-01-02T07:36:31.688Z,6.08
2018-01-02T07:37:31.948Z,6.1
2018-01-02T07:38:31.891Z,6.09
2018-01-02T07:39:31.772Z,6.09
2018-01-02T07:40:31.375Z,6.1
2018-01-02T07:41:31.685Z,6.09
2018-01-02T07:42:31.588Z,6.09
2018-01-02T07:43:32.318Z,6.09
2018-01-02T07:44:32.435Z,6.09
2018-01-02T07:45:31.880Z,6.11
2018-01-02T07:46:32.590Z,6.11
2018-01-02T07:47:31.113Z,6.11
2018-01-02T07:48:32.256Z,6.11
2018-01-02T07:49:31.332Z,6.12
2018-01-02T07:50:31.487Z,6.13
2018-01-02T07:51:31.638Z,6.11
2018-01-02T07:52:31.905Z,6.11
2018-01-02T07:53:32.899Z,6.11
2018-01-02T07:54:31.978Z,6.14
2018-01-02T07:55:31.995Z,6.11
2018-01-02T07:56:32.066Z,6.13
2018-01-02T07:57:32.369Z,6.12
2018-01-02T07:58:31.394Z,6.15
2018-01-02T07:59:31.439Z,6.12
2018-01-02T08:00:31.140Z,6.14
2018-01-02T08:01:32.446Z,6.15
2018-01-02T08:02:32.354Z,6.14
2018-01-02T08:03:32.216Z,6.15
2018-01-02T08:04:32.012Z,6.12
2018-01-02T08:05:31.553Z,6.15
2018-01-02T08:06:31.571Z,6.13
2018-01-02T08:07:32.561Z,6.15
2018-01-02T08:08:31.616Z,6.13
2018-01-02T08:09:32.161Z,6.14
2018-01-02T08:10:32.058Z,6.12
2018-01-02T08:11:32.597Z,6.13
2018-01-02T08:12:31.739Z,6.12
2018-01-02T08:13:32.016Z,6.14
2018-01-02T08:14:31.923Z,6.14
2018-01-02T08:15:31.342Z,6.14
2018-01-02T08:16:32.450Z,6.15
2018-01-02T08:17:32.899Z,6.14
2018-01-02T08:18:31.739Z,6.14
2018-01-02T08:19:31.785Z,6.14
2018-01-02T08:20:31.805Z,6.14
2018-01-02T08:21:31.833Z,6.15
2018-01-02T08:22:31.825Z,6.15
2018-01-02T08:23:32.236Z,6.14
2018-01-02T08:24:32.636Z,6.15
2018-01-02T08:25:31.620Z,6.16
2018-01-02T08:26:32.511Z,6.16
2018-01-02T08:27:31.417Z,6.16
2018-01-02T08:28:32.513Z,6.18
2018-01-02T08:29:32.504Z,6.16
2018-01-02T08:30:32.458Z,6.16
2018-01-02T08:31:31.738Z,6.16
2018-01-02T08:32:31.619Z,6.17
2018-01-02T08:33:32.108Z,6.17
2018-01-02T08:34:31.786Z,6.16
2018-01-02T08:35:32.087Z,6.19
2018-01-02T08:36:32.192Z,6.18
2018-01-02T08:37:32.212Z,6.17
2018-01-02T08:38:32.037Z,6.19
2018-01-02T08:39:32.203Z,6.17
2018-01-02T08:40:32.191Z,6.17
2018-01-02T08:41:31.951Z,6.17
2018-01-02T08:42:31.885Z,6.18
2018-01-02T08:43:32.053Z,6.18
2018-01-02T08:44:32.281Z,6.17
2018-01-02T08:45:32.374Z,6.17
2018-01-02T08:46:32.492Z,6.18
2018-01-02T08:47:31.592Z,6.18
2018-01-02T08:48:31.639Z,6.18
2018-01-02T08:49:31.628Z,6.2
2018-01-02T08:50:32.364Z,6.19
2018-01-02T08:51:33.083Z,6.19
2018-01-02T08:52:32.289Z,6.22
2018-01-02T08:53:32.294Z,6.18
2018-01-02T08:54:33.041Z,6.2
2018-01-02T08:55:32.101Z,6.18
2018-01-02T08:56:32.113Z,6.2
2018-01-02T08:57:31.702Z,6.19
2018-01-02T08:58:31.705Z,6.19
2018-01-02T08:59:31.634Z,6.2
2018-01-02T09:00:31.713Z,6.21
2018-01-02T09:01:29.969Z,6.19
2018-01-02T09:02:29.948Z,6.21
2018-01-02T09:03:29.975Z,6.2
2018-01-02T09:04:29.813Z,6.18
2018-01-02T09:05:31.345Z,6.2
2018-01-02T09:06:31.289Z,6.2
2018-01-02T09:07:31.274Z,6.2
2018-01-02T09:08:31.340Z,6.18
2018-01-02T09:09:31.665Z,6.2
2018-01-02T09:10:31.447Z,6.2
2018-01-02T09:11:30.130Z,6.2
2018-01-02T09:12:29.864Z,6.18
2018-01-02T09:13:29.880Z,6.2
2018-01-02T09:14:31.490Z,6.2
2018-01-02T09:15:32.259Z,6.19
2018-01-02T09:16:31.561Z,6.2
2018-01-02T09:17:31.797Z,6.23
2018-01-02T09:18:31.912Z,6.22
2018-01-02T09:19:31.302Z,6.22
2018-01-02T09:20:31.515Z,6.26
2018-01-02T09:21:32.308Z,6.24
2018-01-02T09:22:31.165Z,6.25
2018-01-02T09:23:29.968Z,6.25
2018-01-02T09:24:30.041Z,6.27
2018-01-02T09:25:29.830Z,6.25
2018-01-02T09:26:29.824Z,6.26
2018-01-02T09:27:31.881Z,6.29
2018-01-02T09:28:29.907Z,6.29
2018-01-02T09:29:29.922Z,6.29
2018-01-02T09:30:30.099Z,6.29
2018-01-02T09:31:30.145Z,6.32
2018-01-02T09:32:29.939Z,6.31
2018-01-02T09:33:31.578Z,6.3
2018-01-02T09:34:31.198Z,6.32
2018-01-02T09:35:31.353Z,6.35
2018-01-02T09:36:31.333Z,6.35
2018-01-02T09:37:31.886Z,6.36
2018-01-02T09:38:31.705Z,6.37
2018-01-02T09:39:32.320Z,6.38
2018-01-02T09:40:32.021Z,6.38
2018-01-02T09:41:32.673Z,6.4
2018-01-02T09:42:31.727Z,6.4
2018-01-02T09:43:32.339Z,6.42
2018-01-02T09:44:31.348Z,6.43
2018-01-02T09:45:31.284Z,6.43
2018-01-02T09:46:31.589Z,6.42
2018-01-02T09:47:31.691Z,6.42
2018-01-02T09:48:31.844Z,6.43
2018-01-02T09:49:32.569Z,6.42
2018-01-02T09:50:31.347Z,6.42
2018-01-02T09:51:31.532Z,6.43
2018-01-02T09:52:32.015Z,6.43
2018-01-02T09:53:32.070Z,6.42
2018-01-02T09:54:30.144Z,6.43
2018-01-02T09:55:32.318Z,6.42
2018-01-02T09:56:31.435Z,6.43
2018-01-02T09:57:31.350Z,6.43
2018-01-02T09:58:31.620Z,6.43
2018-01-02T09:59:32.202Z,6.42
2018-01-02T10:00:30.237Z,6.42
2018-01-02T10:01:31.993Z,6.43
2018-01-02T10:02:29.913Z,6.43
2018-01-02T10:03:32.054Z,6.44
2018-01-02T10:04:34.751Z,6.43
2018-01-02T10:05:31.885Z,6.43
2018-01-02T10:06:32.669Z,6.42
2018-01-02T10:07:33.281Z,6.42
2018-01-02T10:08:34.049Z,6.42
2018-01-02T10:11:35.229Z,6.39
2018-01-02T10:12:31.719Z,6.42
2018-01-02T10:13:32.964Z,6.43
2018-01-02T10:14:32.171Z,6.42
2018-01-02T10:15:32.369Z,6.43
2018-01-02T10:16:31.600Z,6.43
2018-01-02T10:17:31.774Z,6.44
2018-01-02T10:18:31.768Z,6.45
2018-01-02T10:19:32.322Z,6.44
2018-01-02T10:20:31.186Z,6.45
2018-01-02T10:21:31.858Z,6.44
2018-01-02T10:22:32.002Z,6.46
2018-01-02T10:23:31.624Z,6.46
2018-01-02T10:24:31.866Z,6.49
2018-01-02T10:25:31.896Z,6.48
2018-01-02T10:26:31.843Z,6.49
2018-01-02T10:27:32.717Z,6.51
2018-01-02T10:28:32.157Z,6.5
2018-01-02T10:29:31.352Z,6.55
2018-01-02T10:30:31.936Z,6.53
2018-01-02T10:31:32.200Z,6.56
2018-01-02T10:32:36.178Z,6.57
2018-01-02T10:33:31.895Z,6.61
2018-01-02T10:34:32.052Z,6.62
2018-01-02T10:35:32.180Z,6.68
2018-01-02T10:36:32.837Z,6.69
2018-01-02T10:37:31.991Z,6.71
2018-01-02T10:38:32.085Z,6.75
2018-01-02T10:39:32.402Z,6.79
2018-01-02T10:40:32.046Z,6.83
2018-01-02T10:41:32.046Z,6.84
2018-01-02T10:42:32.530Z,6.89
2018-01-02T10:43:31.693Z,6.91
2018-01-02T10:44:31.502Z,6.92
2018-01-02T10:45:31.373Z,6.93
2018-01-02T10:46:31.536Z,6.97
2018-01-02T10:47:32.126Z,6.99
2018-01-02T10:48:32.181Z,6.99
2018-01-02T10:49:32.791Z,7
2018-01-02T10:50:32.034Z,7.03
2018-01-02T10:51:31.669Z,7.05
2018-01-02T10:52:32.046Z,7.07
2018-01-02T10:53:32.144Z,7.05
2018-01-02T10:54:32.308Z,7.08
2018-01-02T10:55:32.457Z,7.04
2018-01-02T10:56:31.473Z,7.03
2018-01-02T10:57:31.862Z,7.02
2018-01-02T10:58:31.929Z,7.02
2018-01-02T10:59:33.929Z,7.01
2018-01-02T11:00:32.297Z,6.97
2018-01-02T11:01:31.648Z,6.96
2018-01-02T11:02:32.037Z,6.95
2018-01-02T11:03:31.294Z,6.95
2018-01-02T11:04:31.320Z,6.94
2018-01-02T11:05:31.647Z,6.93
2018-01-02T11:06:31.799Z,6.94
2018-01-02T11:07:32.081Z,6.96
2018-01-02T11:08:32.796Z,6.95
2018-01-02T11:09:31.558Z,6.98
2018-01-02T11:10:31.721Z,6.97
2018-01-02T11:11:32.032Z,7.01
2018-01-02T11:12:31.185Z,6.99
2018-01-02T11:13:31.305Z,7.02
2018-01-02T11:14:31.492Z,7.03
2018-01-02T11:15:31.501Z,7.04
2018-01-02T11:16:31.893Z,7.06
2018-01-02T11:17:30.936Z,7.07
2018-01-02T11:18:31.205Z,7.07
2018-01-02T11:19:31.377Z,7.05
2018-01-02T11:20:31.690Z,7.07
2018-01-02T11:21:31.500Z,7.07
2018-01-02T11:22:32.380Z,7.07
2018-01-02T11:23:31.631Z,7.08
2018-01-02T11:24:31.787Z,7.07
2018-01-02T11:25:31.883Z,7.07
2018-01-02T11:26:31.642Z,7.08
2018-01-02T11:27:31.858Z,7.07
2018-01-02T11:28:31.721Z,7.07
2018-01-02T11:29:31.840Z,7.05
2018-01-02T11:30:32.257Z,7.03
2018-01-02T11:31:31.747Z,7.03
2018-01-02T11:32:31.934Z,7.02
2018-01-02T11:33:31.417Z,7.04
2018-01-02T11:34:31.138Z,7.02
2018-01-02T11:35:31.394Z,7.03
2018-01-02T11:36:31.375Z,7.04
2018-01-02T11:37:32.157Z,7.04
2018-01-02T11:38:31.554Z,7.02
2018-01-02T11:39:31.609Z,7.04
2018-01-02T11:40:31.798Z,7.05
2018-01-02T11:41:31.896Z,7.06
2018-01-02T11:42:32.231Z,7.08
2018-01-02T11:43:31.160Z,7.09
2018-01-02T11:44:31.283Z,7.12
2018-01-02T11:45:31.450Z,7.14
2018-01-02T11:46:31.709Z,7.18
2018-01-02T11:47:31.909Z,7.2
2018-01-02T11:48:32.165Z,7.21
2018-01-02T11:49:31.115Z,7.24
2018-01-02T11:50:30.843Z,7.25
2018-01-02T11:51:32.107Z,7.24
2018-01-02T11:52:31.466Z,7.27
2018-01-02T11:53:31.554Z,7.26
2018-01-02T11:54:31.618Z,7.25
2018-01-02T11:55:31.918Z,7.23
2018-01-02T11:56:31.824Z,7.21
2018-01-02T11:57:32.065Z,7.24
2018-01-02T11:58:31.883Z,7.2
2018-01-02T11:59:32.021Z,7.2
2018-01-02T12:00:31.571Z,7.2
2018-01-02T12:01:31.722Z,7.22
2018-01-02T12:02:32.047Z,7.19
2018-01-02T12:03:32.751Z,7.18
2018-01-02T12:04:32.048Z,7.18
2018-01-02T12:05:32.264Z,7.18
2018-01-02T12:06:31.446Z,7.17
2018-01-02T12:07:31.698Z,7.18
2018-01-02T12:08:31.463Z,7.19
2018-01-02T12:09:30.830Z,7.21
2018-01-02T12:10:31.886Z,7.21
2018-01-02T12:11:32.497Z,7.23
2018-01-02T12:12:31.718Z,7.24
2018-01-02T12:13:32.101Z,7.24
2018-01-02T12:14:31.314Z,7.23
2018-01-02T12:15:31.465Z,7.23
2018-01-02T12:16:31.523Z,7.22
2018-01-02T12:17:31.755Z,7.21
2018-01-02T12:18:32.043Z,7.22
2018-01-02T12:19:31.857Z,7.19
2018-01-02T12:20:32.128Z,7.19
2018-01-02T12:21:32.104Z,7.18
2018-01-02T12:22:31.101Z,7.18
2018-01-02T12:23:31.922Z,7.15
2018-01-02T12:24:32.796Z,7.16
2018-01-02T12:25:31.947Z,7.14
2018-01-02T12:26:32.262Z,7.13
2018-01-02T12:27:31.494Z,7.15
2018-01-02T12:28:31.577Z,7.13
2018-01-02T12:29:31.767Z,7.12
2018-01-02T12:30:31.642Z,7.12
2018-01-02T12:31:32.103Z,7.09
2018-01-02T12:32:32.167Z,7.11
2018-01-02T12:33:31.521Z,7.1
2018-01-02T12:34:31.628Z,7.07
2018-01-02T12:35:31.558Z,7.08
2018-01-02T12:36:31.791Z,7.06
2018-01-02T12:37:31.772Z,7.05
2018-01-02T12:38:31.519Z,7.04
2018-01-02T12:39:32.909Z,7.04
2018-01-02T12:40:32.091Z,7.04
2018-01-02T12:41:31.755Z,7.04
2018-01-02T12:42:32.272Z,7.04
2018-01-02T12:43:32.380Z,7.04
2018-01-02T12:44:32.787Z,7.06
2018-01-02T12:45:32.645Z,7.06
2018-01-02T12:46:32.337Z,7.09
2018-01-02T12:47:32.565Z,7.08
2018-01-02T12:48:31.396Z,7.12
2018-01-02T12:49:32.716Z,7.13
2018-01-02T12:50:32.077Z,7.14
2018-01-02T12:51:32.332Z,7.15
2018-01-02T12:52:32.783Z,7.18
2018-01-02T12:53:32.374Z,7.19
2018-01-02T12:54:32.791Z,7.16
2018-01-02T12:55:31.884Z,7.19
2018-01-02T12:56:31.114Z,7.18
2018-01-02T12:57:32.618Z,7.18
2018-01-02T12:58:32.338Z,7.16
2018-01-02T12:59:32.312Z,7.18
2018-01-02T13:00:32.432Z,7.16
2018-01-02T13:01:32.347Z,7.18
2018-01-02T13:02:32.455Z,7.19
2018-01-02T13:03:33.112Z,7.19
2018-01-02T13:04:32.483Z,7.19
2018-01-02T13:05:31.917Z,7.19
2018-01-02T13:06:31.935Z,7.2
2018-01-02T13:07:31.967Z,7.21
2018-01-02T13:08:32.522Z,7.21
2018-01-02T13:09:31.646Z,7.21
2018-01-02T13:10:33.098Z,7.21
2018-01-02T13:11:33.107Z,7.23
2018-01-02T13:12:33.667Z,7.21
2018-01-02T13:13:31.546Z,7.2
2018-01-02T13:14:33.173Z,7.22
2018-01-02T13:15:33.831Z,7.2
2018-01-02T13:16:32.709Z,7.2
2018-01-02T13:17:32.746Z,7.22
2018-01-02T13:18:33.308Z,7.2
2018-01-02T13:19:33.325Z,7.2
2018-01-02T13:20:33.115Z,7.2
2018-01-02T13:21:32.939Z,7.22
2018-01-02T13:22:33.144Z,7.21
2018-01-02T13:23:33.374Z,7.21
2018-01-02T13:24:33.580Z,7.21